Time;durP1;ratioP1;P1;durP2;ratioP2;P2;SDS_P1;SDS_P2;PMS_P1;PMS_P2;Temp;Humidity;BMP_temperature;BMP_pressure;BME280_temperature;BME280_humidity;BME280_pressure;Samples;Min_cycle;Max_cycle;Signal;HPM_P1;HPM_P2
2020/12/14 00:01:18;;;;;;;64.53;25.70;;;1.50;94.80;;;;;;5054621;28;20028;-69
2020/12/14 00:03:44;;;;;;;63.85;28.15;;;1.50;94.80;;;;;;5055724;28;20053;-69
2020/12/14 00:06:10;;;;;;;71.45;29.23;;;1.50;95.00;;;;;;5056550;28;20380;-69
2020/12/14 00:08:36;;;;;;;83.97;35.20;;;1.50;94.70;;;;;;5054468;28;20025;-69
2020/12/14 00:11:02;;;;;;;104.65;46.08;;;1.50;94.90;;;;;;5056232;28;20021;-69
2020/12/14 00:13:28;;;;;;;103.78;38.20;;;1.50;94.90;;;;;;5055757;28;20024;-69
2020/12/14 00:15:53;;;;;;;107.80;40.63;;;1.50;94.90;;;;;;5056039;28;20501;-69
2020/12/14 00:18:19;;;;;;;87.78;35.25;;;1.50;94.90;;;;;;5042560;28;20046;-68
2020/12/14 00:20:45;;;;;;;109.00;48.38;;;1.60;94.80;;;;;;5034587;28;20060;-69
2020/12/14 00:23:10;;;;;;;102.93;40.22;;;1.50;94.80;;;;;;5039921;28;20100;-68
2020/12/14 00:25:36;;;;;;;93.55;40.33;;;1.50;94.80;;;;;;5045722;28;20022;-68
2020/12/14 00:28:03;;;;;;;83.13;38.55;;;1.50;94.80;;;;;;5035932;28;20029;-69
2020/12/14 00:30:29;;;;;;;147.88;53.78;;;1.50;94.80;;;;;;5035645;28;20025;-69
2020/12/14 00:32:54;;;;;;;141.18;54.65;;;1.60;94.70;;;;;;5034133;28;20112;-67
2020/12/14 00:35:20;;;;;;;97.40;38.35;;;1.60;94.80;;;;;;5035690;28;20096;-68
2020/12/14 00:37:46;;;;;;;95.10;37.47;;;1.50;94.70;;;;;;5035848;28;20025;-68
2020/12/14 00:40:11;;;;;;;78.28;30.77;;;1.50;94.70;;;;;;5035542;28;20100;-67
2020/12/14 00:42:44;;;;;;;78.13;30.40;;;1.50;94.60;;;;;;5034094;28;20061;-68
2020/12/14 00:45:10;;;;;;;74.82;30.75;;;1.50;94.70;;;;;;5035599;28;20485;-68
2020/12/14 00:47:36;;;;;;;115.90;47.30;;;1.50;94.70;;;;;;5035425;28;20032;-67
2020/12/14 00:50:03;;;;;;;89.88;36.13;;;1.50;94.80;;;;;;5034355;28;20067;-68
2020/12/14 00:52:29;;;;;;;68.55;29.27;;;1.50;94.80;;;;;;5035346;28;20029;-67
2020/12/14 00:54:54;;;;;;;62.45;25.90;;;1.50;94.80;;;;;;5035164;28;20037;-68
2020/12/14 00:57:20;;;;;;;68.95;27.27;;;1.50;94.70;;;;;;5034145;28;20034;-68
2020/12/14 00:59:46;;;;;;;66.85;27.48;;;1.50;94.70;;;;;;5034948;28;20061;-68
2020/12/14 01:02:12;;;;;;;65.68;26.13;;;1.50;94.70;;;;;;5034264;28;20025;-68
2020/12/14 01:04:37;;;;;;;66.90;29.88;;;1.50;94.70;;;;;;5033560;28;20112;-68
2020/12/14 01:07:03;;;;;;;91.97;40.15;;;1.50;94.80;;;;;;5034040;28;20401;-68
2020/12/14 01:09:29;;;;;;;77.63;35.55;;;1.50;94.70;;;;;;5035196;28;20021;-68
2020/12/14 01:11:54;;;;;;;84.13;35.40;;;1.50;94.80;;;;;;5034104;28;20032;-68
2020/12/14 01:14:20;;;;;;;95.07;33.30;;;1.50;94.90;;;;;;5034774;28;20034;-67
2020/12/14 01:16:49;;;;;;;110.60;41.75;;;1.50;94.80;;;;;;5034688;28;20104;-67
2020/12/14 01:19:14;;;;;;;98.60;38.25;;;1.50;94.90;;;;;;5034993;28;20039;-67
2020/12/14 01:21:40;;;;;;;84.03;33.17;;;1.50;94.90;;;;;;5034915;28;20470;-67
2020/12/14 01:24:06;;;;;;;73.38;33.17;;;1.50;94.80;;;;;;5035078;28;20026;-68
2020/12/14 01:26:32;;;;;;;73.68;30.40;;;1.50;94.70;;;;;;5033333;28;20025;-68
2020/12/14 01:28:57;;;;;;;61.72;28.38;;;1.50;94.70;;;;;;5034164;28;20022;-69
2020/12/14 01:31:23;;;;;;;63.28;27.38;;;1.50;94.70;;;;;;5034540;28;20068;-68
2020/12/14 01:33:49;;;;;;;66.32;27.73;;;1.50;94.70;;;;;;5034569;28;21921;-68
2020/12/14 01:36:15;;;;;;;69.50;31.20;;;1.50;94.80;;;;;;5033186;28;20441;-68
2020/12/14 01:38:41;;;;;;;67.88;30.25;;;1.50;94.70;;;;;;5033029;28;20025;-68
2020/12/14 01:41:06;;;;;;;66.55;28.15;;;1.50;94.80;;;;;;5033417;28;20446;-68
2020/12/14 01:43:32;;;;;;;91.15;38.60;;;1.50;94.70;;;;;;5034298;28;20056;-68
2020/12/14 01:45:58;;;;;;;112.20;42.83;;;1.50;94.60;;;;;;5034239;28;20045;-68
2020/12/14 01:48:25;;;;;;;118.45;47.17;;;1.50;94.60;;;;;;5034313;28;20057;-69
2020/12/14 01:50:51;;;;;;;65.80;28.17;;;1.50;94.80;;;;;;5032757;28;20043;-68
2020/12/14 01:53:18;;;;;;;71.13;31.48;;;1.50;94.70;;;;;;5034429;28;20434;-68
2020/12/14 01:55:47;;;;;;;52.47;25.02;;;1.50;94.60;;;;;;5049295;28;20036;-68
2020/12/14 01:58:13;;;;;;;53.63;24.15;;;1.50;94.60;;;;;;5033972;28;20025;-68
2020/12/14 02:00:39;;;;;;;59.33;28.15;;;1.50;94.70;;;;;;5033995;28;20156;-68
2020/12/14 02:03:04;;;;;;;108.25;41.42;;;1.50;94.80;;;;;;5032456;28;20029;-68
2020/12/14 02:05:30;;;;;;;101.60;38.88;;;1.50;94.80;;;;;;5034267;28;20088;-68
2020/12/14 02:07:56;;;;;;;85.93;36.72;;;1.50;94.80;;;;;;5032498;28;20135;-69
2020/12/14 02:10:22;;;;;;;67.10;28.65;;;1.50;94.60;;;;;;5034055;28;20103;-68
2020/12/14 02:12:48;;;;;;;49.65;24.48;;;1.50;94.50;;;;;;5032072;28;20029;-68
2020/12/14 02:15:14;;;;;;;61.58;28.65;;;1.50;94.60;;;;;;5034047;28;20029;-68
2020/12/14 02:17:40;;;;;;;85.50;36.75;;;1.50;94.60;;;;;;5034115;28;20035;-68
2020/12/14 02:20:06;;;;;;;73.35;31.10;;;1.40;94.60;;;;;;5033638;28;20021;-67
2020/12/14 02:22:32;;;;;;;98.25;41.25;;;1.40;94.50;;;;;;5033744;28;20032;-67
2020/12/14 02:25:04;;;;;;;94.45;40.78;;;1.50;94.70;;;;;;5031878;28;20538;-68
2020/12/14 02:27:31;;;;;;;58.35;25.90;;;1.40;94.70;;;;;;5032340;28;20032;-68
2020/12/14 02:29:58;;;;;;;46.63;23.17;;;1.40;94.70;;;;;;5033593;28;20459;-68
2020/12/14 02:32:25;;;;;;;41.63;18.45;;;1.50;94.80;;;;;;5033529;28;20492;-67
2020/12/14 02:34:52;;;;;;;45.78;19.38;;;1.50;94.70;;;;;;5031976;28;20120;-67
2020/12/14 02:37:21;;;;;;;45.20;19.50;;;1.50;94.80;;;;;;5032087;28;20116;-67
2020/12/14 02:39:47;;;;;;;34.58;17.15;;;1.50;94.70;;;;;;5032048;28;20083;-67
2020/12/14 02:42:16;;;;;;;41.28;19.08;;;1.50;94.70;;;;;;5033595;28;20037;-67
2020/12/14 02:44:42;;;;;;;36.30;16.42;;;1.50;94.70;;;;;;5033296;28;20033;-68
2020/12/14 02:47:09;;;;;;;36.67;16.13;;;1.40;94.60;;;;;;5032911;28;20079;-69
2020/12/14 02:49:35;;;;;;;36.90;17.42;;;1.40;94.50;;;;;;5033477;28;20030;-67
2020/12/14 02:52:02;;;;;;;37.63;16.50;;;1.40;94.50;;;;;;5032009;28;20116;-68
2020/12/14 02:54:28;;;;;;;35.75;17.15;;;1.40;94.50;;;;;;5032864;28;20029;-68
2020/12/14 02:56:53;;;;;;;39.65;17.73;;;1.40;94.60;;;;;;5032959;28;20052;-68
2020/12/14 02:59:20;;;;;;;39.85;18.23;;;1.40;94.60;;;;;;5033340;28;20030;-69
2020/12/14 03:01:48;;;;;;;41.88;18.20;;;1.40;94.70;;;;;;5032270;28;20044;-67
2020/12/14 03:04:14;;;;;;;42.08;18.83;;;1.40;94.70;;;;;;5033708;28;20488;-67
2020/12/14 03:06:40;;;;;;;39.90;17.05;;;1.40;94.80;;;;;;5032887;28;20021;-67
2020/12/14 03:09:05;;;;;;;36.47;17.73;;;1.40;94.70;;;;;;5032880;28;20380;-67
2020/12/14 03:11:31;;;;;;;33.50;15.52;;;1.50;94.70;;;;;;5033149;28;20029;-67
2020/12/14 03:13:57;;;;;;;29.70;15.13;;;1.50;94.70;;;;;;5031965;28;20030;-67
2020/12/14 03:16:23;;;;;;;33.63;16.63;;;1.40;94.50;;;;;;5033040;28;20030;-67
2020/12/14 03:18:48;;;;;;;34.95;16.30;;;1.50;94.60;;;;;;5036043;28;20025;-69
2020/12/14 03:21:14;;;;;;;33.13;16.65;;;1.40;94.60;;;;;;5038413;28;20033;-70
2020/12/14 03:23:40;;;;;;;34.95;17.70;;;1.40;94.60;;;;;;5042660;28;20033;-69
2020/12/14 03:26:06;;;;;;;36.13;17.20;;;1.50;94.60;;;;;;5041217;28;20026;-69
2020/12/14 03:28:31;;;;;;;36.80;16.65;;;1.50;94.70;;;;;;5034665;28;20025;-69
2020/12/14 03:30:57;;;;;;;30.40;15.35;;;1.40;94.60;;;;;;5038417;28;20379;-69
2020/12/14 03:33:23;;;;;;;33.08;16.88;;;1.40;94.60;;;;;;5050189;28;20071;-69
2020/12/14 03:35:49;;;;;;;36.35;17.63;;;1.40;94.50;;;;;;5045357;28;20052;-69
2020/12/14 03:38:15;;;;;;;33.22;15.73;;;1.40;94.60;;;;;;5037440;28;20433;-70
2020/12/14 03:40:42;;;;;;;35.92;18.70;;;1.40;94.60;;;;;;5034993;28;20022;-69
2020/12/14 03:43:08;;;;;;;37.83;18.95;;;1.40;94.60;;;;;;5044978;28;20029;-68
2020/12/14 03:45:34;;;;;;;36.13;17.40;;;1.40;94.50;;;;;;5040850;28;20530;-68
2020/12/14 03:48:00;;;;;;;36.85;17.33;;;1.40;94.60;;;;;;5037887;28;20033;-67
2020/12/14 03:50:26;;;;;;;35.05;17.15;;;1.40;94.70;;;;;;5051870;28;20382;-69
2020/12/14 03:52:51;;;;;;;40.85;19.17;;;1.40;94.70;;;;;;5034435;28;20427;-69
2020/12/14 03:55:17;;;;;;;33.78;17.15;;;1.40;94.70;;;;;;5040483;28;20448;-68
2020/12/14 03:57:43;;;;;;;37.80;19.13;;;1.40;94.80;;;;;;5043659;28;20049;-68
2020/12/14 04:00:09;;;;;;;36.75;18.30;;;1.40;94.80;;;;;;5036039;28;20061;-69
2020/12/14 04:02:34;;;;;;;35.40;17.50;;;1.50;94.80;;;;;;5036255;28;20030;-70
2020/12/14 04:05:00;;;;;;;33.22;17.05;;;1.50;94.90;;;;;;5042393;28;20045;-69
2020/12/14 04:07:27;;;;;;;33.03;15.18;;;1.50;94.90;;;;;;5044241;28;20051;-69
2020/12/14 04:09:53;;;;;;;32.38;15.90;;;1.50;94.70;;;;;;5037083;28;20060;-68
2020/12/14 04:12:18;;;;;;;32.28;17.13;;;1.50;94.60;;;;;;5039184;28;21717;-69
2020/12/14 04:14:44;;;;;;;32.65;15.45;;;1.40;94.40;;;;;;5035563;28;20037;-68
2020/12/14 04:17:10;;;;;;;36.72;18.63;;;1.40;94.40;;;;;;5045344;28;20049;-69
2020/12/14 04:19:36;;;;;;;42.80;19.75;;;1.40;94.40;;;;;;5041594;28;20379;-68
2020/12/14 04:22:07;;;;;;;33.90;17.38;;;1.30;94.40;;;;;;5037655;28;20033;-68
2020/12/14 04:24:36;;;;;;;37.97;17.58;;;1.30;94.40;;;;;;5043059;28;20033;-68
2020/12/14 04:27:05;;;;;;;38.88;18.80;;;1.30;94.50;;;;;;5046482;28;20426;-69
2020/12/14 04:29:31;;;;;;;45.70;21.38;;;1.30;94.50;;;;;;5048982;28;20055;-68
2020/12/14 04:31:57;;;;;;;41.70;19.58;;;1.30;94.50;;;;;;5036184;28;20029;-68
2020/12/14 04:34:23;;;;;;;33.33;17.45;;;1.30;94.60;;;;;;5042538;28;20039;-68
2020/12/14 04:36:50;;;;;;;41.63;18.60;;;1.30;94.60;;;;;;5045199;28;20028;-68
2020/12/14 04:39:16;;;;;;;36.03;18.15;;;1.30;94.70;;;;;;5043064;28;20025;-68
2020/12/14 04:41:42;;;;;;;42.10;21.90;;;1.30;94.70;;;;;;5042769;28;20029;-68
2020/12/14 04:44:09;;;;;;;41.42;20.90;;;1.30;94.70;;;;;;5038828;28;20066;-68
2020/12/14 04:46:35;;;;;;;43.33;21.55;;;1.30;94.70;;;;;;5041852;28;20030;-68
2020/12/14 04:49:08;;;;;;;44.00;21.40;;;1.30;94.70;;;;;;5045549;28;20033;-68
2020/12/14 04:51:37;;;;;;;34.75;18.13;;;1.30;94.70;;;;;;5034177;28;20526;-67
2020/12/14 04:54:05;;;;;;;51.40;25.65;;;1.30;94.60;;;;;;5043981;28;20025;-67
2020/12/14 04:56:38;;;;;;;34.67;18.05;;;1.30;94.60;;;;;;5048764;28;20352;-68
2020/12/14 04:59:04;;;;;;;38.83;17.85;;;1.30;94.60;;;;;;5061108;28;20029;-68
2020/12/14 05:01:30;;;;;;;43.45;20.38;;;1.30;94.60;;;;;;5047561;28;20025;-69
2020/12/14 05:03:55;;;;;;;34.22;16.23;;;1.30;94.60;;;;;;5040403;28;20045;-68
2020/12/14 05:06:21;;;;;;;41.28;20.73;;;1.30;94.60;;;;;;5051008;28;20028;-68
2020/12/14 05:08:47;;;;;;;34.50;16.08;;;1.30;94.60;;;;;;5044461;28;20057;-68
2020/12/14 05:11:13;;;;;;;36.17;17.35;;;1.30;94.60;;;;;;5051660;28;20029;-68
2020/12/14 05:13:40;;;;;;;47.40;22.25;;;1.30;94.70;;;;;;5051127;28;20032;-67
2020/12/14 05:16:06;;;;;;;45.20;21.35;;;1.30;94.70;;;;;;5040868;28;20124;-68
2020/12/14 05:18:31;;;;;;;46.95;21.42;;;1.30;94.80;;;;;;5045536;28;20111;-68
2020/12/14 05:21:02;;;;;;;40.78;20.58;;;1.30;94.80;;;;;;5039125;28;20030;-68
2020/12/14 05:23:32;;;;;;;46.05;21.08;;;1.30;94.80;;;;;;5048048;28;20188;-67
2020/12/14 05:26:09;;;;;;;33.20;16.52;;;1.30;94.80;;;;;;5041184;28;20083;-70
2020/12/14 05:28:35;;;;;;;30.60;14.90;;;1.40;94.80;;;;;;5031969;28;20087;-70
2020/12/14 05:31:02;;;;;;;29.85;14.55;;;1.30;94.60;;;;;;5057725;28;20367;-68
2020/12/14 05:33:29;;;;;;;34.17;16.50;;;1.30;94.70;;;;;;5053263;28;20028;-68
2020/12/14 05:35:55;;;;;;;37.75;17.77;;;1.30;94.70;;;;;;5046184;28;20064;-67
2020/12/14 05:38:31;;;;;;;36.35;17.95;;;1.30;94.70;;;;;;5037176;28;20057;-69
2020/12/14 05:40:59;;;;;;;48.55;23.10;;;1.30;94.70;;;;;;5040930;28;20024;-70
2020/12/14 05:43:27;;;;;;;45.08;20.70;;;1.30;94.90;;;;;;5046152;28;20843;-66
2020/12/14 05:45:54;;;;;;;80.43;32.47;;;1.40;94.90;;;;;;5049604;28;20017;-69
2020/12/14 05:48:35;;;;;;;53.05;24.70;;;1.40;94.90;;;;;;5035937;28;20059;-69
2020/12/14 05:51:06;;;;;;;50.63;25.55;;;1.40;94.90;;;;;;5051829;28;20035;-68
2020/12/14 05:53:46;;;;;;;57.13;28.20;;;1.40;94.90;;;;;;5037802;28;20121;-68
2020/12/14 05:56:12;;;;;;;50.22;24.50;;;1.40;94.80;;;;;;5049197;28;20033;-68
2020/12/14 05:58:39;;;;;;;41.85;20.70;;;1.40;95.00;;;;;;5043528;28;20368;-68
2020/12/14 06:01:09;;;;;;;36.67;17.77;;;1.50;95.00;;;;;;5036750;28;20057;-67
2020/12/14 06:03:37;;;;;;;34.00;17.25;;;1.50;94.90;;;;;;5039012;28;20484;-68
2020/12/14 06:06:10;;;;;;;35.40;16.60;;;1.50;94.80;;;;;;5039426;28;20036;-69
2020/12/14 06:08:45;;;;;;;37.92;18.98;;;1.50;94.80;;;;;;5042039;28;20047;-70
2020/12/14 06:11:12;;;;;;;39.00;18.15;;;1.50;94.80;;;;;;5043770;28;20464;-68
2020/12/14 06:13:48;;;;;;;33.50;15.95;;;1.50;94.90;;;;;;5047743;28;20068;-66
2020/12/14 06:16:25;;;;;;;36.05;17.08;;;1.50;94.90;;;;;;5049597;28;20507;-67
2020/12/14 06:18:52;;;;;;;35.65;16.83;;;1.60;94.90;;;;;;5033745;28;20032;-66
2020/12/14 06:21:27;;;;;;;39.83;18.90;;;1.60;94.90;;;;;;5038190;28;20029;-68
2020/12/14 06:23:54;;;;;;;36.90;16.83;;;1.60;94.80;;;;;;5038254;28;20030;-68
2020/12/14 06:26:24;;;;;;;51.13;25.13;;;1.60;94.90;;;;;;5036896;28;20025;-69
2020/12/14 06:28:52;;;;;;;47.15;20.38;;;1.60;94.90;;;;;;5040294;28;20415;-68
2020/12/14 06:31:31;;;;;;;76.63;26.67;;;1.60;94.90;;;;;;5042895;28;20035;-67
2020/12/14 06:33:57;;;;;;;35.28;16.00;;;1.60;94.90;;;;;;5049237;28;20033;-69
2020/12/14 06:36:27;;;;;;;39.28;16.60;;;1.60;94.70;;;;;;5042704;28;20041;-69
2020/12/14 06:38:53;;;;;;;57.03;23.13;;;1.60;94.80;;;;;;5045102;28;20032;-68
2020/12/14 06:41:24;;;;;;;39.38;18.17;;;1.60;94.80;;;;;;5046914;28;20522;-69
2020/12/14 06:44:03;;;;;;;35.85;18.60;;;1.60;94.80;;;;;;5036526;28;20120;-68
2020/12/14 06:46:32;;;;;;;32.22;17.38;;;1.70;94.70;;;;;;5041778;28;20108;-70
2020/12/14 06:48:59;;;;;;;42.33;20.27;;;1.60;94.80;;;;;;5034508;28;20037;-69
2020/12/14 06:51:25;;;;;;;37.50;20.08;;;1.70;94.80;;;;;;5042673;28;20033;-69
2020/12/14 06:53:54;;;;;;;38.78;19.67;;;1.70;94.80;;;;;;5036875;28;20491;-69
2020/12/14 06:56:32;;;;;;;47.47;25.70;;;1.70;94.80;;;;;;5042936;28;20112;-68
2020/12/14 06:58:58;;;;;;;40.85;20.65;;;1.70;94.90;;;;;;5048092;28;20128;-67
2020/12/14 07:01:34;;;;;;;35.95;17.38;;;1.70;94.70;;;;;;5033856;28;20124;-68
2020/12/14 07:04:00;;;;;;;;;;;1.70;94.60;;;;;;5038484;28;20044;-68
2020/12/14 07:06:27;;;;;;;34.50;17.75;;;1.70;94.50;;;;;;5039895;28;19908;-68
2020/12/14 07:08:53;;;;;;;35.65;18.55;;;1.70;94.60;;;;;;5044481;28;20425;-68
2020/12/14 07:11:21;;;;;;;32.88;15.77;;;1.60;94.70;;;;;;5038398;28;20063;-69
2020/12/14 07:13:48;;;;;;;42.67;21.00;;;1.70;94.80;;;;;;5041501;28;20087;-68
2020/12/14 07:16:16;;;;;;;45.47;22.35;;;1.70;94.90;;;;;;5042169;28;20079;-68
2020/12/14 07:18:44;;;;;;;46.28;23.10;;;1.70;94.90;;;;;;5039511;28;20025;-69
2020/12/14 07:21:17;;;;;;;48.13;22.75;;;1.70;95.10;;;;;;5032156;28;20033;-70
2020/12/14 07:23:45;;;;;;;40.42;19.77;;;1.70;94.90;;;;;;5042624;28;20033;-68
2020/12/14 07:26:13;;;;;;;38.72;20.00;;;1.70;94.90;;;;;;5040690;28;20517;-73
2020/12/14 07:28:40;;;;;;;33.50;16.83;;;1.80;95.00;;;;;;5033764;28;20021;-70
2020/12/14 07:31:19;;;;;;;38.50;19.25;;;1.80;94.90;;;;;;5035258;28;20036;-68
2020/12/14 07:33:50;;;;;;;35.38;18.15;;;1.80;95.10;;;;;;5044189;28;20078;-69
2020/12/14 07:36:16;;;;;;;38.22;18.50;;;1.90;95.20;;;;;;5033013;28;20112;-66
2020/12/14 07:38:48;;;;;;;47.00;24.00;;;1.90;95.10;;;;;;5031174;28;20033;-68
2020/12/14 07:41:14;;;;;;;50.45;26.65;;;1.90;95.10;;;;;;5056989;28;20479;-67
2020/12/14 07:43:48;;;;;;;47.75;23.00;;;2.00;95.20;;;;;;5047454;28;20032;-67
2020/12/14 07:49:23;;;;;;;32.25;17.30;;;2.00;95.10;;;;;;5031800;28;20041;-67
2020/12/14 07:51:49;;;;;;;34.45;18.40;;;2.10;95.00;;;;;;5032641;28;20022;-66
2020/12/14 07:54:18;;;;;;;41.70;20.98;;;2.10;95.00;;;;;;5032544;28;20032;-67
2020/12/14 07:57:02;;;;;;;39.55;21.15;;;2.10;94.90;;;;;;5041089;28;20074;-67
2020/12/14 07:59:30;;;;;;;37.33;18.60;;;2.10;95.00;;;;;;5034056;28;20026;-65
2020/12/14 08:01:56;;;;;;;43.90;22.15;;;2.10;95.00;;;;;;5031341;28;20029;-66
2020/12/14 08:04:24;;;;;;;51.03;26.00;;;2.10;94.90;;;;;;5031963;28;20060;-66
2020/12/14 08:06:51;;;;;;;65.60;31.73;;;2.20;94.90;;;;;;5050920;28;20051;-67
2020/12/14 08:09:23;;;;;;;57.17;27.67;;;2.20;94.80;;;;;;5037602;28;20036;-67
2020/12/14 08:11:49;;;;;;;43.67;19.52;;;2.10;94.70;;;;;;5039364;28;20071;-67
2020/12/14 08:14:17;;;;;;;67.25;29.70;;;2.10;94.80;;;;;;5039840;28;20029;-67
2020/12/14 08:16:47;;;;;;;61.85;28.38;;;2.10;94.80;;;;;;5030943;28;20025;-67
2020/12/14 08:19:21;;;;;;;38.83;20.45;;;2.20;94.80;;;;;;5032329;28;20538;-67
2020/12/14 08:22:12;;;;;;;34.13;17.27;;;2.20;94.90;;;;;;5036848;28;20032;-67
2020/12/14 08:24:39;;;;;;;36.58;17.38;;;2.20;94.80;;;;;;5054681;28;20033;-67
2020/12/14 08:27:11;;;;;;;50.45;22.20;;;2.20;94.70;;;;;;5035929;28;20017;-67
2020/12/14 08:30:10;;;;;;;33.50;16.95;;;2.20;94.70;;;;;;5034368;28;20124;-67
2020/12/14 08:32:36;;;;;;;61.60;28.13;;;2.20;94.80;;;;;;5034875;28;20172;-67
2020/12/14 08:35:25;;;;;;;106.97;42.58;;;2.20;94.60;;;;;;5034254;28;20026;-66
2020/12/14 08:38:10;;;;;;;91.13;34.22;;;2.30;94.80;;;;;;5035712;28;20040;-66
2020/12/14 08:40:37;;;;;;;83.93;31.83;;;2.30;94.80;;;;;;5035507;28;20071;-66
2020/12/14 08:43:14;;;;;;;59.88;26.75;;;2.30;94.70;;;;;;5034438;28;20025;-66
2020/12/14 08:46:08;;;;;;;51.83;24.63;;;2.20;94.40;;;;;;5035417;28;20345;-67
2020/12/14 08:48:43;;;;;;;35.55;18.10;;;2.20;94.40;;;;;;5035590;28;20033;-66
2020/12/14 08:51:13;;;;;;;36.90;18.40;;;2.20;94.40;;;;;;5043440;28;20033;-67
2020/12/14 08:53:40;;;;;;;41.40;20.42;;;2.10;94.40;;;;;;5040799;28;20116;-67
2020/12/14 08:56:11;;;;;;;56.88;25.80;;;2.20;94.60;;;;;;5035119;28;20031;-67
2020/12/14 08:58:58;;;;;;;40.13;18.38;;;2.20;94.80;;;;;;5046856;28;20029;-65
2020/12/14 09:01:29;;;;;;;39.15;18.52;;;2.30;94.90;;;;;;5035530;28;20033;-67
2020/12/14 09:03:57;;;;;;;46.38;20.15;;;2.30;94.60;;;;;;5035332;28;20391;-66
2020/12/14 09:06:31;;;;;;;57.67;26.17;;;2.30;94.50;;;;;;5034194;28;20060;-66
2020/12/14 09:08:58;;;;;;;41.45;19.27;;;2.20;94.30;;;;;;5033545;28;20460;-65
2020/12/14 09:11:28;;;;;;;41.80;18.73;;;2.20;94.20;;;;;;5047648;28;20108;-65
2020/12/14 09:14:04;;;;;;;36.97;19.00;;;2.20;94.30;;;;;;5035296;28;20026;-65
2020/12/14 09:16:31;;;;;;;43.50;22.25;;;2.20;94.20;;;;;;5050269;28;20033;-66
2020/12/14 09:18:57;;;;;;;51.63;23.27;;;2.20;94.30;;;;;;5035151;28;20034;-65
2020/12/14 09:21:23;;;;;;;46.95;21.83;;;2.20;94.50;;;;;;5050165;28;20495;-66
2020/12/14 09:24:13;;;;;;;47.40;21.90;;;2.20;94.50;;;;;;5050522;28;20029;-66
2020/12/14 09:26:39;;;;;;;35.25;16.77;;;2.20;94.50;;;;;;5033388;28;20045;-66
2020/12/14 09:29:05;;;;;;;40.05;19.13;;;2.20;94.30;;;;;;5033555;28;20029;-66
2020/12/14 09:31:31;;;;;;;46.72;22.48;;;2.20;94.20;;;;;;5034584;28;20026;-65
2020/12/14 09:33:57;;;;;;;66.15;30.00;;;2.20;94.20;;;;;;5034305;28;20412;-66
2020/12/14 09:36:22;;;;;;;49.92;24.38;;;2.20;94.40;;;;;;5034336;28;20037;-67
2020/12/14 09:38:48;;;;;;;37.10;19.33;;;2.20;94.50;;;;;;5034295;28;20410;-66
2020/12/14 09:41:14;;;;;;;53.28;24.40;;;2.20;94.40;;;;;;5035167;28;20037;-66
2020/12/14 09:43:43;;;;;;;93.82;42.45;;;2.20;94.60;;;;;;5033046;28;20112;-66
2020/12/14 09:46:09;;;;;;;81.82;35.03;;;2.30;94.80;;;;;;5033544;28;20029;-67
2020/12/14 09:48:35;;;;;;;47.83;24.27;;;2.30;94.60;;;;;;5033064;28;20026;-67
2020/12/14 09:51:02;;;;;;;47.10;21.27;;;2.30;94.70;;;;;;5034242;28;20030;-67
2020/12/14 09:53:28;;;;;;;49.33;21.80;;;2.40;94.70;;;;;;5034163;28;20057;-66
2020/12/14 09:55:53;;;;;;;57.88;27.83;;;2.40;94.60;;;;;;5034021;28;20151;-67
2020/12/14 09:58:19;;;;;;;45.35;24.70;;;2.50;94.60;;;;;;5034513;28;20031;-66
2020/12/14 10:00:45;;;;;;;36.22;17.73;;;2.50;94.60;;;;;;5033838;28;20021;-67
2020/12/14 10:03:11;;;;;;;48.00;21.35;;;2.50;94.40;;;;;;5034043;28;20446;-66
2020/12/14 10:05:37;;;;;;;53.53;24.20;;;2.50;94.20;;;;;;5032790;28;20025;-66
2020/12/14 10:08:02;;;;;;;41.08;21.45;;;2.40;94.10;;;;;;5034169;28;20056;-66
2020/12/14 10:10:28;;;;;;;48.38;22.42;;;2.40;94.10;;;;;;5033883;28;20025;-66
2020/12/14 10:12:59;;;;;;;43.00;19.02;;;2.40;94.20;;;;;;5033657;28;20486;-67
2020/12/14 10:15:25;;;;;;;43.65;21.40;;;2.40;94.30;;;;;;5033067;28;20415;-66
2020/12/14 10:17:50;;;;;;;42.28;19.70;;;2.40;94.20;;;;;;5033719;28;20034;-67
2020/12/14 10:20:16;;;;;;;45.42;19.40;;;2.40;94.40;;;;;;5033717;28;20032;-67
2020/12/14 10:22:42;;;;;;;37.40;17.70;;;2.40;94.30;;;;;;5034253;28;20025;-67
2020/12/14 10:25:08;;;;;;;49.58;20.60;;;2.40;94.30;;;;;;5047061;28;20108;-67
2020/12/14 10:27:33;;;;;;;52.65;22.92;;;2.40;94.30;;;;;;5032426;28;20475;-66
2020/12/14 10:29:59;;;;;;;75.38;32.83;;;2.40;94.20;;;;;;5033343;28;20021;-67
2020/12/14 10:32:25;;;;;;;62.85;29.23;;;2.40;94.20;;;;;;5042919;28;20029;-67
2020/12/14 10:34:50;;;;;;;72.30;31.30;;;2.40;94.10;;;;;;5036564;28;20108;-67
2020/12/14 10:37:16;;;;;;;88.47;38.58;;;2.30;94.20;;;;;;5042046;28;20455;-68
2020/12/14 10:39:43;;;;;;;72.72;34.75;;;2.40;94.30;;;;;;5037925;28;20048;-67
2020/12/14 10:42:09;;;;;;;102.22;38.33;;;2.40;94.50;;;;;;5033474;28;20022;-68
2020/12/14 10:44:34;;;;;;;58.40;25.38;;;2.40;94.40;;;;;;5032831;28;20036;-68
2020/12/14 10:47:04;;;;;;;99.93;35.08;;;2.40;94.30;;;;;;5031465;28;20018;-67
2020/12/14 10:49:31;;;;;;;55.15;23.98;;;2.40;94.30;;;;;;5032014;28;20074;-65
2020/12/14 10:51:57;;;;;;;75.35;34.92;;;2.40;94.30;;;;;;5032207;28;20022;-67
2020/12/14 10:54:22;;;;;;;114.82;51.50;;;2.40;94.20;;;;;;5032092;28;20442;-67
2020/12/14 10:56:48;;;;;;;126.00;50.78;;;2.40;94.10;;;;;;5036802;28;20029;-67
2020/12/14 10:59:14;;;;;;;94.90;42.80;;;2.40;94.40;;;;;;5033089;28;20030;-66
2020/12/14 11:01:39;;;;;;;70.85;32.10;;;2.40;94.10;;;;;;5033603;28;20035;-66
2020/12/14 11:04:05;;;;;;;80.72;36.20;;;2.40;94.10;;;;;;5033036;28;20050;-67
2020/12/14 11:06:31;;;;;;;85.63;39.67;;;2.40;94.10;;;;;;5040648;28;20475;-66
2020/12/14 11:08:57;;;;;;;75.53;32.50;;;2.40;94.20;;;;;;5039585;28;20032;-66
2020/12/14 11:11:23;;;;;;;144.25;54.40;;;2.40;94.20;;;;;;5032989;28;20018;-67
2020/12/14 11:13:50;;;;;;;88.10;35.50;;;2.40;94.20;;;;;;5033073;28;20083;-66
2020/12/14 11:16:16;;;;;;;92.78;37.25;;;2.40;94.30;;;;;;5031398;28;20029;-66
2020/12/14 11:18:42;;;;;;;98.43;39.70;;;2.40;94.10;;;;;;5031445;28;20406;-67
2020/12/14 11:21:08;;;;;;;88.20;39.22;;;2.40;94.20;;;;;;5032782;28;20026;-66
2020/12/14 11:23:33;;;;;;;79.75;37.90;;;2.50;94.40;;;;;;5033178;28;20454;-68
2020/12/14 11:25:59;;;;;;;132.73;47.95;;;2.50;94.40;;;;;;5032070;28;20030;-67
2020/12/14 11:28:27;;;;;;;98.75;37.60;;;2.50;94.10;;;;;;5038463;28;20021;-66
2020/12/14 11:30:52;;;;;;;72.43;28.67;;;2.50;94.00;;;;;;5039571;28;20112;-67
2020/12/14 11:33:18;;;;;;;81.15;34.67;;;2.50;94.00;;;;;;5032508;28;20485;-67
2020/12/14 11:35:44;;;;;;;57.38;26.27;;;2.50;94.30;;;;;;5032858;28;20053;-67
2020/12/14 11:38:10;;;;;;;55.47;28.83;;;2.60;94.50;;;;;;5034614;28;20029;-66
2020/12/14 11:40:35;;;;;;;53.38;30.33;;;2.60;94.50;;;;;;5043765;28;20034;-72
2020/12/14 11:43:01;;;;;;;74.97;39.65;;;2.60;94.30;;;;;;5033103;28;20036;-67
2020/12/14 11:45:27;;;;;;;69.70;39.10;;;2.70;94.40;;;;;;5032776;28;20383;-67
2020/12/14 11:47:54;;;;;;;79.10;39.83;;;2.70;94.50;;;;;;5031324;28;20464;-68
2020/12/14 11:50:20;;;;;;;58.30;29.85;;;2.80;94.60;;;;;;5031655;28;20361;-67
2020/12/14 11:52:46;;;;;;;58.53;30.40;;;2.80;94.60;;;;;;5032598;28;20025;-67
2020/12/14 11:55:15;;;;;;;57.60;28.67;;;2.90;94.80;;;;;;5032587;28;20083;-66
2020/12/14 11:57:41;;;;;;;43.22;23.13;;;3.00;94.80;;;;;;5038720;28;20021;-67
2020/12/14 12:00:10;;;;;;;45.13;23.83;;;3.00;94.70;;;;;;5045530;28;20028;-67
2020/12/14 12:02:36;;;;;;;43.92;24.75;;;3.10;94.70;;;;;;5035000;28;20029;-68
2020/12/14 12:05:02;;;;;;;64.63;32.95;;;3.10;94.70;;;;;;5036715;28;20569;-67
2020/12/14 12:07:29;;;;;;;47.47;25.83;;;3.20;94.50;;;;;;5035083;28;20046;-67
2020/12/14 12:09:56;;;;;;;51.92;29.23;;;3.10;94.40;;;;;;5043598;28;20032;-67
2020/12/14 12:12:22;;;;;;;51.30;27.95;;;3.20;94.50;;;;;;5042602;28;20032;-67
2020/12/14 12:14:48;;;;;;;45.20;23.55;;;3.20;94.40;;;;;;5049804;28;20373;-68
2020/12/14 12:17:14;;;;;;;44.00;23.08;;;3.20;94.40;;;;;;5035069;28;20076;-67
2020/12/14 12:19:40;;;;;;;42.35;22.27;;;3.20;94.30;;;;;;5035902;28;20017;-67
2020/12/14 12:22:05;;;;;;;40.40;21.27;;;3.30;94.20;;;;;;5034807;28;20036;-67
2020/12/14 12:24:31;;;;;;;42.67;22.00;;;3.30;94.20;;;;;;5035010;28;20029;-66
2020/12/14 12:26:57;;;;;;;46.85;22.48;;;3.30;94.20;;;;;;5036151;28;20384;-66
2020/12/14 12:29:23;;;;;;;36.17;17.95;;;3.30;94.10;;;;;;5035821;28;20064;-66
2020/12/14 12:31:54;;;;;;;36.28;17.38;;;3.20;93.80;;;;;;5034695;28;20022;-67
2020/12/14 12:34:20;;;;;;;33.72;17.88;;;3.20;93.80;;;;;;5034613;28;20030;-67
2020/12/14 12:36:50;;;;;;;36.83;18.90;;;3.20;93.80;;;;;;5040161;28;20032;-67
2020/12/14 12:39:16;;;;;;;42.90;20.08;;;3.20;93.70;;;;;;5044704;28;20036;-65
2020/12/14 12:41:46;;;;;;;36.35;19.63;;;3.10;93.70;;;;;;5035924;28;20021;-67